Time;durP1;ratioP1;P1;durP2;ratioP2;P2;SDS_P1;SDS_P2;PMS_P1;PMS_P2;Temp;Humidity;BMP_temperature;BMP_pressure;BME280_temperature;BME280_humidity;BME280_pressure;Samples;Min_cycle;Max_cycle;Signal;HPM_P1;HPM_P2
2024/03/27 00:02:09;;;;;;;;;;;;;;;;;;5073035;28;19932;-76
2024/03/27 00:04:35;;;;;;;;;;;;;;;;;;5074154;28;19909;-76
2024/03/27 00:07:01;;;;;;;;;;;;;;;;;;5073737;28;20261;-76
2024/03/27 00:09:27;;;;;;;;;;;;;;;;;;5074028;28;19908;-76
2024/03/27 00:11:53;;;;;;;;;;;;;;;;;;5073609;28;19920;-76
2024/03/27 00:14:19;;;;;;;;;;;;;;;;;;5072770;28;19909;-76
2024/03/27 00:16:45;;;;;;;;;;;;;;;;;;5074007;28;19908;-76
2024/03/27 00:19:11;;;;;;;;;;;;;;;;;;5073792;28;19908;-76
2024/03/27 00:21:37;;;;;;;;;;;;;;;;;;5073943;28;20272;-74
2024/03/27 00:24:06;;;;;;;;;;;;;;;;;;5073918;28;19913;-77
2024/03/27 00:26:32;;;;;;;;;;;;;;;;;;5073495;28;19951;-74
2024/03/27 00:28:58;;;;;;;;;;;;;;;;;;5072671;28;19960;-74
2024/03/27 00:31:24;;;;;;;;;;;;;;;;;;5073959;28;19921;-74
2024/03/27 00:33:49;;;;;;;;;;;;;;;;;;5073585;28;19931;-74
2024/03/27 00:36:15;;;;;;;;;;;;;;;;;;5074305;28;19908;-75
2024/03/27 00:38:41;;;;;;;;;;;;;;;;;;5073789;28;20308;-75
2024/03/27 00:41:08;;;;;;;;;;;;;;;;;;5073313;28;19916;-77
2024/03/27 00:43:35;;;;;;;;;;;;;;;;;;5073515;28;20272;-75
2024/03/27 00:46:00;;;;;;;;;;;;;;;;;;5072417;28;19915;-74
2024/03/27 00:48:26;;;;;;;;;;;;;;;;;;5073300;28;19995;-75
2024/03/27 00:50:52;;;;;;;;;;;;;;;;;;5073815;28;19939;-75
2024/03/27 00:53:18;;;;;;;;;;;;;;;;;;5072386;28;19909;-74
2024/03/27 00:55:44;;;;;;;;;;;;;;;;;;5073403;28;20357;-74
2024/03/27 00:58:10;;;;;;;;;;;;;;;;;;5073875;28;20379;-77
2024/03/27 01:00:36;;;;;;;;;;;;;;;;;;5073532;28;20326;-76
2024/03/27 01:03:02;;;;;;;;;;;;;;;;;;5073226;28;19931;-77
2024/03/27 01:05:28;;;;;;;;;;;;;;;;;;5073545;28;19908;-76
2024/03/27 01:07:54;;;;;;;;;;;;;;;;;;5072246;28;19912;-76
2024/03/27 01:10:20;;;;;;;;;;;;;;;;;;5073197;28;19924;-76
2024/03/27 01:12:46;;;;;;;;;;;;;;;;;;5072141;28;19908;-76
2024/03/27 01:15:12;;;;;;;;;;;;;;;;;;5073001;28;19908;-76
2024/03/27 01:17:38;;;;;;;;;;;;;;;;;;5073370;28;19910;-76
2024/03/27 01:20:05;;;;;;;;;;;;;;;;;;5073433;28;19913;-76
2024/03/27 01:22:31;;;;;;;;;;;;;;;;;;5071758;28;19913;-76
2024/03/27 01:24:57;;;;;;;;;;;;;;;;;;5073338;28;19934;-76
2024/03/27 01:27:23;;;;;;;;;;;;;;;;;;5073394;28;20327;-76
2024/03/27 01:29:49;;;;;;;;;;;;;;;;;;5071439;28;19971;-76
2024/03/27 01:32:15;;;;;;;;;;;;;;;;;;5071988;28;19908;-76
2024/03/27 01:34:41;;;;;;;;;;;;;;;;;;5073196;28;19915;-76
2024/03/27 01:37:07;;;;;;;;;;;;;;;;;;5072964;28;19909;-76
2024/03/27 01:39:33;;;;;;;;;;;;;;;;;;5073192;28;19936;-76
2024/03/27 01:41:59;;;;;;;;;;;;;;;;;;5071982;28;19919;-76
2024/03/27 01:44:25;;;;;;;;;;;;;;;;;;5071481;28;20364;-76
2024/03/27 01:46:51;;;;;;;;;;;;;;;;;;5073300;28;20438;-76
2024/03/27 01:49:17;;;;;;;;;;;;;;;;;;5073104;28;20298;-76
2024/03/27 01:51:43;;;;;;;;;;;;;;;;;;5072877;28;19920;-76
2024/03/27 01:54:09;;;;;;;;;;;;;;;;;;5073108;28;19940;-76
2024/03/27 01:56:36;;;;;;;;;;;;;;;;;;5076617;28;19908;-76
2024/03/27 01:59:02;;;;;;;;;;;;;;;;;;5074840;28;19916;-76
2024/03/27 02:01:28;;;;;;;;;;;;;;;;;;5075279;28;19909;-76
2024/03/27 02:03:54;;;;;;;;;;;;;;;;;;5076478;28;20350;-76
2024/03/27 02:06:20;;;;;;;;;;;;;;;;;;5076043;28;19908;-76
2024/03/27 02:08:46;;;;;;;;;;;;;;;;;;5077045;28;19908;-76
2024/03/27 02:11:12;;;;;;;;;;;;;;;;;;5076216;28;20416;-76
2024/03/27 02:13:38;;;;;;;;;;;;;;;;;;5076351;28;20406;-76
2024/03/27 02:16:04;;;;;;;;;;;;;;;;;;5075069;28;20284;-76
2024/03/27 02:18:30;;;;;;;;;;;;;;;;;;5075756;28;19909;-77
2024/03/27 02:20:56;;;;;;;;;;;;;;;;;;5074981;28;20272;-76
2024/03/27 02:23:22;;;;;;;;;;;;;;;;;;5076124;28;19915;-76
2024/03/27 02:25:48;;;;;;;;;;;;;;;;;;5074436;28;19909;-76
2024/03/27 02:28:16;;;;;;;;;;;;;;;;;;5076320;28;20391;-76
2024/03/27 02:30:42;;;;;;;;;;;;;;;;;;5075847;28;19921;-76
2024/03/27 02:33:07;;;;;;;;;;;;;;;;;;5075891;28;19916;-76
2024/03/27 02:35:33;;;;;;;;;;;;;;;;;;5076011;28;19995;-76
2024/03/27 02:37:59;;;;;;;;;;;;;;;;;;5075813;28;20333;-76
2024/03/27 02:40:25;;;;;;;;;;;;;;;;;;5075448;28;20283;-76
2024/03/27 02:42:51;;;;;;;;;;;;;;;;;;5074489;28;19908;-76
2024/03/27 02:45:17;;;;;;;;;;;;;;;;;;5075861;28;19912;-76
2024/03/27 02:47:43;;;;;;;;;;;;;;;;;;5075241;28;19950;-76
2024/03/27 02:50:09;;;;;;;;;;;;;;;;;;5075567;28;19916;-76
2024/03/27 02:52:35;;;;;;;;;;;;;;;;;;5075495;28;19950;-76
2024/03/27 02:55:01;;;;;;;;;;;;;;;;;;5073866;28;19961;-76
2024/03/27 02:57:27;;;;;;;;;;;;;;;;;;5075412;28;19909;-76
2024/03/27 02:59:53;;;;;;;;;;;;;;;;;;5075393;28;20381;-76
2024/03/27 03:02:19;;;;;;;;;;;;;;;;;;5075095;28;20438;-76
2024/03/27 03:04:45;;;;;;;;;;;;;;;;;;5075195;28;19948;-76
2024/03/27 03:07:11;;;;;;;;;;;;;;;;;;5075279;28;20308;-76
2024/03/27 03:09:37;;;;;;;;;;;;;;;;;;5074922;28;19995;-76
2024/03/27 03:12:04;;;;;;;;;;;;;;;;;;5075136;28;19927;-76
2024/03/27 03:14:30;;;;;;;;;;;;;;;;;;5075201;28;19908;-76
2024/03/27 03:16:55;;;;;;;;;;;;;;;;;;5073487;28;19934;-76
2024/03/27 03:19:21;;;;;;;;;;;;;;;;;;5074921;28;19909;-76
2024/03/27 03:21:47;;;;;;;;;;;;;;;;;;5073324;28;19920;-76
2024/03/27 03:24:13;;;;;;;;;;;;;;;;;;5075163;28;19997;-76
2024/03/27 03:26:39;;;;;;;;;;;;;;;;;;5074919;28;19912;-76
2024/03/27 03:29:05;;;;;;;;;;;;;;;;;;5074209;28;19924;-76
2024/03/27 03:31:31;;;;;;;;;;;;;;;;;;5074853;28;20368;-76
2024/03/27 03:33:57;;;;;;;;;;;;;;;;;;5075244;28;19954;-76
2024/03/27 03:36:25;;;;;;;;;;;;;;;;;;5074289;28;19909;-75
2024/03/27 03:38:51;;;;;;;;;;;;;;;;;;5074608;28;19908;-75
2024/03/27 03:41:17;;;;;;;;;;;;;;;;;;5074544;28;19915;-75
2024/03/27 03:43:43;;;;;;;;;;;;;;;;;;5072816;28;20035;-75
2024/03/27 03:46:09;;;;;;;;;;;;;;;;;;5073274;28;19908;-75
2024/03/27 03:48:34;;;;;;;;;;;;;;;;;;5074967;28;20305;-75
2024/03/27 03:51:01;;;;;;;;;;;;;;;;;;5072673;28;19916;-75
2024/03/27 03:53:27;;;;;;;;;;;;;;;;;;5074333;28;19908;-75
2024/03/27 03:55:53;;;;;;;;;;;;;;;;;;5074529;28;19909;-75
2024/03/27 03:58:19;;;;;;;;;;;;;;;;;;5073915;28;19958;-75
2024/03/27 04:00:45;;;;;;;;;;;;;;;;;;5074287;28;20258;-75
2024/03/27 04:03:10;;;;;;;;;;;;;;;;;;5074463;28;20237;-75
2024/03/27 04:05:36;;;;;;;;;;;;;;;;;;5073758;28;19908;-75
2024/03/27 04:08:02;;;;;;;;;;;;;;;;;;5072785;28;20402;-75
2024/03/27 04:10:28;;;;;;;;;;;;;;;;;;5074345;28;20364;-75
2024/03/27 04:12:54;;;;;;;;;;;;;;;;;;5073626;28;20367;-75
2024/03/27 04:15:20;;;;;;;;;;;;;;;;;;5074057;28;19969;-75
2024/03/27 04:17:46;;;;;;;;;;;;;;;;;;5073487;28;19908;-75
2024/03/27 04:20:12;;;;;;;;;;;;;;;;;;5072331;28;19909;-75
2024/03/27 04:22:38;;;;;;;;;;;;;;;;;;5073956;28;19934;-75
2024/03/27 04:25:04;;;;;;;;;;;;;;;;;;5072919;28;19915;-75
2024/03/27 04:27:30;;;;;;;;;;;;;;;;;;5073880;28;19908;-75
2024/03/27 04:29:56;;;;;;;;;;;;;;;;;;5073509;28;20398;-75
2024/03/27 04:32:22;;;;;;;;;;;;;;;;;;5073405;28;19940;-75
2024/03/27 04:34:48;;;;;;;;;;;;;;;;;;5072521;28;19908;-75
2024/03/27 04:37:14;;;;;;;;;;;;;;;;;;5073798;28;19913;-75
2024/03/27 04:39:39;;;;;;;;;;;;;;;;;;5073407;28;19908;-75
2024/03/27 04:42:05;;;;;;;;;;;;;;;;;;5073725;28;20010;-75
2024/03/27 04:44:31;;;;;;;;;;;;;;;;;;5073826;28;19908;-75
2024/03/27 04:46:57;;;;;;;;;;;;;;;;;;5073415;28;20261;-75
2024/03/27 04:49:23;;;;;;;;;;;;;;;;;;5074045;28;19938;-75
2024/03/27 04:51:49;;;;;;;;;;;;;;;;;;5073534;28;19917;-75
2024/03/27 04:54:15;;;;;;;;;;;;;;;;;;5073638;28;20375;-76
2024/03/27 04:56:41;;;;;;;;;;;;;;;;;;5073642;28;20346;-75
2024/03/27 04:59:07;;;;;;;;;;;;;;;;;;5073527;28;19960;-75
2024/03/27 05:01:33;;;;;;;;;;;;;;;;;;5071873;28;20354;-75
2024/03/27 05:03:59;;;;;;;;;;;;;;;;;;5073482;28;19992;-73
2024/03/27 05:06:25;;;;;;;;;;;;;;;;;;5072220;28;19908;-74
2024/03/27 05:08:51;;;;;;;;;;;;;;;;;;5071045;28;20377;-74
2024/03/27 05:11:18;;;;;;;;;;;;;;;;;;5071377;28;19950;-74
2024/03/27 05:13:44;;;;;;;;;;;;;;;;;;5071318;28;19959;-74
2024/03/27 05:16:10;;;;;;;;;;;;;;;;;;5071002;28;19944;-74
2024/03/27 05:18:36;;;;;;;;;;;;;;;;;;5070171;28;19916;-75
2024/03/27 05:21:02;;;;;;;;;;;;;;;;;;5071403;28;19943;-74
2024/03/27 05:23:28;;;;;;;;;;;;;;;;;;5071889;28;19909;-74
2024/03/27 05:25:55;;;;;;;;;;;;;;;;;;5071669;28;19916;-74
2024/03/27 05:28:21;;;;;;;;;;;;;;;;;;5072906;28;19915;-74
2024/03/27 05:30:47;;;;;;;;;;;;;;;;;;5076138;28;20365;-75
2024/03/27 05:33:13;;;;;;;;;;;;;;;;;;5075757;28;19985;-75
2024/03/27 05:35:39;;;;;;;;;;;;;;;;;;5074805;28;19918;-75
2024/03/27 05:38:05;;;;;;;;;;;;;;;;;;5074860;28;19913;-75
2024/03/27 05:40:31;;;;;;;;;;;;;;;;;;5075148;28;19954;-74
2024/03/27 05:42:57;;;;;;;;;;;;;;;;;;5074518;28;19995;-75
2024/03/27 05:45:22;;;;;;;;;;;;;;;;;;5073611;28;19952;-75
2024/03/27 05:47:48;;;;;;;;;;;;;;;;;;5074922;28;19915;-74
2024/03/27 05:50:14;;;;;;;;;;;;;;;;;;5074469;28;19917;-74
2024/03/27 05:52:40;;;;;;;;;;;;;;;;;;5075220;28;19915;-75
2024/03/27 05:55:06;;;;;;;;;;;;;;;;;;5076544;28;19915;-75
2024/03/27 05:57:32;;;;;;;;;;;;;;;;;;5076403;28;19988;-74
2024/03/27 05:59:58;;;;;;;;;;;;;;;;;;5076358;28;20387;-76
2024/03/27 06:02:24;;;;;;;;;;;;;;;;;;5075169;28;19908;-75
2024/03/27 06:04:50;;;;;;;;;;;;;;;;;;5076398;28;20330;-76
2024/03/27 06:07:16;;;;;;;;;;;;;;;;;;5075204;28;20303;-75
2024/03/27 06:09:42;;;;;;;;;;;;;;;;;;5075087;28;19922;-76
2024/03/27 06:12:08;;;;;;;;;;;;;;;;;;5074649;28;19917;-76
2024/03/27 06:14:34;;;;;;;;;;;;;;;;;;5076233;28;19913;-76
2024/03/27 06:17:00;;;;;;;;;;;;;;;;;;5078647;28;19920;-76
2024/03/27 06:19:26;;;;;;;;;;;;;;;;;;5103490;28;19913;-72
2024/03/27 06:21:52;;;;;;;;;;;;;;;;;;5094857;28;19919;-74
2024/03/27 06:24:18;;;;;;;;;;;;;;;;;;5095534;28;19947;-74
2024/03/27 06:26:44;;;;;;;;;;;;;;;;;;5102744;28;19955;-70
2024/03/27 06:29:10;;;;;;;;;;;;;;;;;;5104033;28;19965;-74
2024/03/27 06:31:36;;;;;;;;;;;;;;;;;;5110365;28;19931;-69
2024/03/27 06:34:02;;;;;;;;;;;;;;;;;;5102653;28;19915;-68
2024/03/27 06:36:30;;;;;;;;;;;;;;;;;;5102628;28;20372;-69
2024/03/27 06:38:56;;;;;;;;;;;;;;;;;;5097868;28;19915;-67
2024/03/27 06:41:22;;;;;;;;;;;;;;;;;;5074763;28;19912;-67
2024/03/27 06:43:48;;;;;;;;;;;;;;;;;;5113758;28;20404;-69
2024/03/27 06:46:16;;;;;;;;;;;;;;;;;;5111787;28;19999;-68
2024/03/27 06:48:56;;;;;;;;;;;;;;;;;;5108645;28;20295;-69
2024/03/27 06:51:22;;;;;;;;;;;;;;;;;;5093122;28;19920;-70
2024/03/27 06:53:48;;;;;;;;;;;;;;;;;;5094521;28;19919;-68
2024/03/27 06:56:14;;;;;;;;;;;;;;;;;;5093683;28;19912;-69
2024/03/27 06:58:40;;;;;;;;;;;;;;;;;;5087703;28;19917;-69
2024/03/27 07:01:06;;;;;;;;;;;;;;;;;;5080620;28;19919;-69
2024/03/27 07:03:33;;;;;;;;;;;;;;;;;;5103592;28;19916;-70
2024/03/27 07:05:59;;;;;;;;;;;;;;;;;;5112992;28;20003;-70
2024/03/27 07:08:25;;;;;;;;;;;;;;;;;;5112886;28;20419;-69
2024/03/27 07:10:51;;;;;;;;;;;;;;;;;;5094983;28;20011;-69
2024/03/27 07:13:17;;;;;;;;;;;;;;;;;;5095504;28;19916;-69
2024/03/27 07:15:43;;;;;;;;;;;;;;;;;;5087015;28;20372;-71
2024/03/27 07:18:09;;;;;;;;;;;;;;;;;;5092269;28;19912;-70
2024/03/27 07:20:34;;;;;;;;;;;;;;;;;;5093278;28;19957;-72
2024/03/27 07:23:01;;;;;;;;;;;;;;;;;;5105383;28;19974;-69
2024/03/27 07:25:27;;;;;;;;;;;;;;;;;;5094898;28;20568;-73
2024/03/27 07:27:53;;;;;;;;;;;;;;;;;;5092712;28;20145;-74
2024/03/27 07:30:19;;;;;;;;;;;;;;;;;;5107794;28;19926;-74
2024/03/27 07:32:45;;;;;;;;;;;;;;;;;;5097129;28;19954;-74
2024/03/27 07:35:11;;;;;;;;;;;;;;;;;;5093334;28;20279;-74
2024/03/27 07:37:37;;;;;;;;;;;;;;;;;;5110140;28;19912;-73
2024/03/27 07:40:03;;;;;;;;;;;;;;;;;;5110224;27;19923;-74
2024/03/27 07:42:29;;;;;;;;;;;;;;;;;;5112128;28;19912;-74
2024/03/27 07:44:55;;;;;;;;;;;;;;;;;;5110792;28;19962;-73
2024/03/27 07:47:21;;;;;;;;;;;;;;;;;;5098532;28;19975;-74
2024/03/27 07:49:47;;;;;;;;;;;;;;;;;;5094218;28;19915;-73
2024/03/27 07:52:13;;;;;;;;;;;;;;;;;;5093426;28;19939;-74
2024/03/27 07:54:39;;;;;;;;;;;;;;;;;;5099370;28;20311;-70
2024/03/27 07:57:05;;;;;;;;;;;;;;;;;;5099842;28;19916;-72
2024/03/27 07:59:31;;;;;;;;;;;;;;;;;;5104436;28;19916;-70
2024/03/27 08:01:57;;;;;;;;;;;;;;;;;;5095387;28;20026;-69
2024/03/27 08:04:23;;;;;;;;;;;;;;;;;;5097281;28;19991;-71
2024/03/27 08:06:49;;;;;;;;;;;;;;;;;;5092586;28;19915;-69
2024/03/27 08:09:15;;;;;;;;;;;;;;;;;;5093764;28;20322;-68
2024/03/27 08:11:41;;;;;;;;;;;;;;;;;;5094551;28;19924;-70
2024/03/27 08:14:08;;;;;;;;;;;;;;;;;;5093128;28;20390;-70
2024/03/27 08:16:35;;;;;;;;;;;;;;;;;;5095052;28;19908;-69
2024/03/27 08:19:01;;;;;;;;;;;;;;;;;;5094921;28;20372;-70
2024/03/27 08:21:27;;;;;;;;;;;;;;;;;;5100910;28;19918;-69
2024/03/27 08:23:52;;;;;;;;;;;;;;;;;;5112515;28;19908;-69
2024/03/27 08:26:18;;;;;;;;;;;;;;;;;;5113776;28;20382;-68
2024/03/27 08:28:45;;;;;;;;;;;;;;;;;;5114247;28;19908;-68
2024/03/27 08:31:11;;;;;;;;;;;;;;;;;;5105296;28;19920;-69
2024/03/27 08:33:38;;;;;;;;;;;;;;;;;;5089378;28;20372;-69
2024/03/27 08:36:05;;;;;;;;;;;;;;;;;;5082340;28;19909;-69
2024/03/27 08:38:31;;;;;;;;;;;;;;;;;;5104548;28;20407;-69
2024/03/27 08:40:59;;;;;;;;;;;;;;;;;;5077654;28;20001;-69
2024/03/27 08:43:25;;;;;;;;;;;;;;;;;;5080360;28;19908;-69
2024/03/27 08:45:51;;;;;;;;;;;;;;;;;;5080396;28;19920;-69
2024/03/27 08:48:18;;;;;;;;;;;;;;;;;;5071471;28;19908;-69
2024/03/27 08:50:46;;;;;;;;;;;;;;;;;;5071271;28;19923;-69
2024/03/27 08:53:16;;;;;;;;;;;;;;;;;;5083443;28;19979;-69
2024/03/27 08:55:43;;;;;;;;;;;;;;;;;;5090948;28;20316;-69
2024/03/27 08:58:09;;;;;;;;;;;;;;;;;;5084205;28;19912;-69
2024/03/27 09:00:35;;;;;;;;;;;;;;;;;;5064726;28;19916;-69
2024/03/27 09:03:04;;;;;;;;;;;;;;;;;;5093605;28;19983;-69
2024/03/27 09:05:36;;;;;;;;;;;;;;;;;;5111537;28;19920;-69
2024/03/27 09:08:02;;;;;;;;;;;;;;;;;;5093432;28;19908;-69
2024/03/27 09:10:28;;;;;;;;;;;;;;;;;;5095220;28;20027;-69
2024/03/27 09:12:54;;;;;;;;;;;;;;;;;;5090556;28;19912;-70
2024/03/27 09:15:19;;;;;;;;;;;;;;;;;;5094958;28;19908;-69
2024/03/27 09:17:45;;;;;;;;;;;;;;;;;;5095251;28;19908;-70
2024/03/27 09:20:11;;;;;;;;;;;;;;;;;;5096773;28;19962;-71
2024/03/27 09:22:37;;;;;;;;;;;;;;;;;;5095718;28;19916;-71
2024/03/27 09:25:04;;;;;;;;;;;;;;;;;;5110168;28;19911;-72
2024/03/27 09:27:30;;;;;;;;;;;;;;;;;;5116881;28;20341;-72
2024/03/27 09:29:56;;;;;;;;;;;;;;;;;;5116955;28;20018;-70
2024/03/27 09:32:28;;;;;;;;;;;;;;;;;;5116967;28;19919;-72
2024/03/27 09:34:54;;;;;;;;;;;;;;;;;;5116710;28;19914;-72
2024/03/27 09:37:20;;;;;;;;;;;;;;;;;;5116922;28;20002;-70
2024/03/27 09:39:46;;;;;;;;;;;;;;;;;;5115535;28;19914;-71
2024/03/27 09:42:12;;;;;;;;;;;;;;;;;;5115307;28;19908;-70
2024/03/27 09:44:38;;;;;;;;;;;;;;;;;;5116875;28;19908;-73
2024/03/27 09:47:04;;;;;;;;;;;;;;;;;;5114055;28;19965;-75
2024/03/27 09:49:30;;;;;;;;;;;;;;;;;;5097727;28;19920;-75
2024/03/27 09:51:56;;;;;;;;;;;;;;;;;;5085694;28;19924;-76
2024/03/27 09:54:22;;;;;;;;;;;;;;;;;;5092947;28;19999;-76
2024/03/27 09:57:44;;;;;;;;;;;;;;;;;;5126142;27;19926;-75
2024/03/27 10:00:10;;;;;;;;;;;;;;;;;;5125121;28;19916;-70
2024/03/27 10:04:12;;;;;;;;;;;;;;;;;;5075785;27;2668940;-70
2024/03/27 10:16:14;;;;;;;;;;;;;;;;;;4677312;27;12856780;-72
2024/03/27 10:18:40;;;;;;;;;;;;;;;;;;5106776;28;19937;-72
2024/03/27 10:21:06;;;;;;;;;;;;;;;;;;5129836;28;19912;-71
2024/03/27 10:23:32;;;;;;;;;;;;;;;;;;5103741;28;20368;-72
2024/03/27 10:25:58;;;;;;;;;;;;;;;;;;5129461;28;20406;-71
2024/03/27 10:28:25;;;;;;;;;;;;;;;;;;5105260;28;19918;-72
2024/03/27 10:33:21;;;;;;;;;;;;;;;;;;5100698;27;19922;-71
2024/03/27 10:37:21;;;;;;;;;;;;;;;;;;5071222;27;19912;-70
2024/03/27 10:39:47;;;;;;;;;;;;;;;;;;5069210;28;19920;-72
2024/03/27 10:42:16;;;;;;;;;;;;;;;;;;5068318;28;20258;-70
2024/03/27 10:44:43;;;;;;;;;;;;;;;;;;5084853;28;20027;-71
2024/03/27 10:49:39;;;;;;;;;;;;;;;;;;5082821;27;19927;-70
2024/03/27 10:52:37;;;;;;;;;;;;;;;;;;5109047;27;19922;-69
2024/03/27 10:56:15;;;;;;;;;;;;;;;;;;5088590;27;19923;-69
2024/03/27 11:00:27;;;;;;;;;;;;;;;;;;5084761;27;19916;-69
2024/03/27 11:02:53;;;;;;;;;;;;;;;;;;5086802;28;20396;-69
2024/03/27 11:07:42;;;;;;;;;;;;;;;;;;5066217;28;20027;-69
2024/03/27 11:12:23;;;;;;;;;;;;;;;;;;5107802;27;19923;-70
2024/03/27 11:15:22;;;;;;;;;;;;;;;;;;5085454;27;19927;-70
2024/03/27 11:17:47;;;;;;;;;;;;;;;;;;5063300;28;19948;-70
2024/03/27 11:20:14;;;;;;;;;;;;;;;;;;5067675;28;19947;-71
2024/03/27 11:22:40;;;;;;;;;;;;;;;;;;5066748;28;19909;-71
2024/03/27 11:25:06;;;;;;;;;;;;;;;;;;5069373;28;19909;-70
2024/03/27 11:28:37;;;;;;;;;;;;;;;;;;5069411;28;19917;-70
2024/03/27 11:31:03;;;;;;;;;;;;;;;;;;5067434;28;19931;-70
2024/03/27 11:33:42;;;;;;;;;;;;;;;;;;5110077;27;19916;-70
2024/03/27 11:36:08;;;;;;;;;;;;;;;;;;5108524;28;20003;-71
2024/03/27 11:39:34;;;;;;;;;;;;;;;;;;5153583;27;19930;-71
2024/03/27 11:42:01;;;;;;;;;;;;;;;;;;5150120;27;19994;-70
2024/03/27 11:44:27;;;;;;;;;;;;;;;;;;5151251;27;19997;-70
2024/03/27 11:46:53;;;;;;;;;;;;;;;;;;5151674;27;19946;-69
2024/03/27 11:49:19;;;;;;;;;;;;;;;;;;5149383;27;19991;-69
2024/03/27 11:52:12;;;;;;;;;;;;;;;;;;5089690;27;19916;-69
2024/03/27 11:56:22;;;;;;;;;;;;;;;;;;5109748;27;19938;-70
2024/03/27 11:58:48;;;;;;;;;;;;;;;;;;5109031;28;19912;-69
2024/03/27 12:01:14;;;;;;;;;;;;;;;;;;5111331;28;20326;-69
2024/03/27 12:03:40;;;;;;;;;;;;;;;;;;5091122;28;20552;-72
2024/03/27 12:06:06;;;;;;;;;;;;;;;;;;5096590;28;19912;-71
2024/03/27 12:08:32;;;;;;;;;;;;;;;;;;5100795;28;20445;-72
2024/03/27 12:10:58;;;;;;;;;;;;;;;;;;5085406;28;19915;-71
2024/03/27 12:13:24;;;;;;;;;;;;;;;;;;5087598;28;19913;-71
2024/03/27 12:17:18;;;;;;;;;;;;;;;;;;5106966;27;19922;-70
2024/03/27 12:20:30;;;;;;;;;;;;;;;;;;5089122;27;19917;-71
2024/03/27 12:22:56;;;;;;;;;;;;;;;;;;5081295;28;19927;-69
2024/03/27 12:25:22;;;;;;;;;;;;;;;;;;5087603;28;19954;-73
2024/03/27 12:31:38;;;;;;;;;;;;;;;;;;5170258;27;19933;-69
2024/03/27 12:38:23;;;;;;;;;;;;;;;;;;5107676;27;19922;-69
2024/03/27 12:46:12;;;;;;;;;;;;;;;;;;5089052;27;20291;-69
2024/03/27 12:48:38;;;;;;;;;;;;;;;;;;5089272;28;19988;-68
2024/03/27 12:52:47;;;;;;;;;;;;;;;;;;5110720;27;19922;-68
2024/03/27 12:55:13;;;;;;;;;;;;;;;;;;5110900;28;19912;-72
2024/03/27 12:59:29;;;;;;;;;;;;;;;;;;5110371;27;19927;-71
2024/03/27 13:03:32;;;;;;;;;;;;;;;;;;5111034;27;19923;-71
2024/03/27 13:05:57;;;;;;;;;;;;;;;;;;5110729;28;20367;-68
2024/03/27 13:09:15;;;;;;;;;;;;;;;;;;5090523;27;19923;-71
2024/03/27 13:11:41;;;;;;;;;;;;;;;;;;5090567;28;20003;-70
2024/03/27 13:14:40;;;;;;;;;;;;;;;;;;5127738;27;19912;-71
2024/03/27 13:20:07;;;;;;;;;;;;;;;;;;5086424;27;19920;-69
2024/03/27 13:22:33;;;;;;;;;;;;;;;;;;5085967;28;19918;-71
2024/03/27 13:24:59;;;;;;;;;;;;;;;;;;5084668;28;19978;-70
2024/03/27 13:27:25;;;;;;;;;;;;;;;;;;5084876;28;19940;-71
2024/03/27 13:29:51;;;;;;;;;;;;;;;;;;5087248;28;20283;-71
2024/03/27 13:34:57;;;;;;;;;;;;;;;;;;5124283;27;20000;-69
2024/03/27 13:39:50;;;;;;;;;;;;;;;;;;5088650;27;20529;-69
2024/03/27 13:43:55;;;;;;;;;;;;;;;;;;5129300;27;19918;-70
2024/03/27 13:46:21;;;;;;;;;;;;;;;;;;5129554;28;20287;-71
2024/03/27 13:51:09;;;;;;;;;;;;;;;;;;5089667;27;19916;-69
2024/03/27 13:53:35;;;;;;;;;;;;;;;;;;5088631;28;19917;-70
2024/03/27 13:57:29;;;;;;;;;;;;;;;;;;5151811;27;20290;-74
2024/03/27 13:59:55;;;;;;;;;;;;;;;;;;5147105;27;19911;-75
2024/03/27 14:02:21;;;;;;;;;;;;;;;;;;5151561;27;20416;-75
2024/03/27 14:08:29;;;;;;;;;;;;;;;;;;5091174;28;19913;-75
2024/03/27 14:11:26;;;;;;;;;;;;;;;;;;5111586;27;20368;-75
2024/03/27 14:15:31;;;;;;;;;;;;;;;;;;5071107;28;19923;-74
2024/03/27 14:19:32;;;;;;;;;;;;;;;;;;5090885;27;19923;-75
2024/03/27 14:22:49;;;;;;;;;;;;;;;;;;5070747;28;19923;-74
2024/03/27 14:25:16;;;;;;;;;;;;;;;;;;5070873;28;20011;-73
2024/03/27 14:29:09;;;;;;;;;;;;;;;;;;5111711;27;19916;-74
2024/03/27 14:35:59;;;;;;;;;;;;;;;;;;5050197;28;19924;-75
2024/03/27 14:38:25;;;;;;;;;;;;;;;;;;5048661;28;19913;-74
2024/03/27 14:40:53;;;;;;;;;;;;;;;;;;5049853;28;19913;-75
2024/03/27 14:44:59;;;;;;;;;;;;;;;;;;5001202;27;2218178;-74
2024/03/27 14:47:26;;;;;;;;;;;;;;;;;;5051238;28;19913;-74
2024/03/27 14:50:27;;;;;;;;;;;;;;;;;;5089144;27;19912;-75
2024/03/27 14:52:53;;;;;;;;;;;;;;;;;;5082512;28;19912;-75
2024/03/27 14:58:17;;;;;;;;;;;;;;;;;;5152050;27;19919;-74
2024/03/27 15:01:02;;;;;;;;;;;;;;;;;;5111146;27;19922;-74
2024/03/27 15:05:42;;;;;;;;;;;;;;;;;;5089657;27;20287;-77
2024/03/27 15:10:11;;;;;;;;;;;;;;;;;;5110822;27;19922;-76
2024/03/27 15:12:36;;;;;;;;;;;;;;;;;;5109919;28;19912;-76
2024/03/27 15:15:02;;;;;;;;;;;;;;;;;;5110302;28;19961;-76
2024/03/27 15:17:28;;;;;;;;;;;;;;;;;;5108847;28;19908;-76
2024/03/27 15:19:54;;;;;;;;;;;;;;;;;;5110300;28;20383;-76
2024/03/27 15:22:20;;;;;;;;;;;;;;;;;;5111609;28;20371;-77
2024/03/27 15:26:03;;;;;;;;;;;;;;;;;;5071516;28;19923;-76
2024/03/27 15:28:29;;;;;;;;;;;;;;;;;;5071178;28;19919;-77
2024/03/27 15:30:57;;;;;;;;;;;;;;;;;;5069858;28;20347;-77
2024/03/27 15:33:39;;;;;;;;;;;;;;;;;;5091514;27;19912;-76
2024/03/27 15:36:06;;;;;;;;;;;;;;;;;;5091530;28;20003;-75
2024/03/27 15:45:39;;;;;;;;;;;;;;;;;;5111931;27;20244;-77
2024/03/27 15:51:56;;;;;;;;;;;;;;;;;;5111907;27;19916;-75
2024/03/27 15:54:21;;;;;;;;;;;;;;;;;;5111362;28;19919;-76
2024/03/27 16:00:53;;;;;;;;;;;;;;;;;;5091644;27;19923;-76
2024/03/27 16:03:19;;;;;;;;;;;;;;;;;;5091004;28;20351;-76
2024/03/27 16:05:45;;;;;;;;;;;;;;;;;;5091233;28;19908;-76
2024/03/27 16:08:11;;;;;;;;;;;;;;;;;;5090872;28;19938;-77
2024/03/27 16:10:37;;;;;;;;;;;;;;;;;;5089830;28;19912;-77
2024/03/27 16:13:24;;;;;;;;;;;;;;;;;;5111466;27;19916;-76
2024/03/27 16:19:10;;;;;;;;;;;;;;;;;;5091400;27;19916;-76
2024/03/27 16:22:37;;;;;;;;;;;;;;;;;;5091049;27;19927;-76
2024/03/27 16:25:03;;;;;;;;;;;;;;;;;;5090070;28;20007;-76
2024/03/27 16:27:29;;;;;;;;;;;;;;;;;;5091406;28;19915;-77
2024/03/27 16:29:57;;;;;;;;;;;;;;;;;;5091009;28;20002;-76
2024/03/27 16:32:23;;;;;;;;;;;;;;;;;;5091410;28;19908;-76
2024/03/27 16:34:49;;;;;;;;;;;;;;;;;;5089779;28;20016;-76
2024/03/27 16:37:15;;;;;;;;;;;;;;;;;;5089382;28;19908;-77
2024/03/27 16:39:42;;;;;;;;;;;;;;;;;;5091141;28;19916;-77
2024/03/27 16:42:08;;;;;;;;;;;;;;;;;;5090965;28;20028;-77
2024/03/27 16:44:34;;;;;;;;;;;;;;;;;;5090580;28;20061;-76
2024/03/27 16:47:00;;;;;;;;;;;;;;;;;;5091150;28;19933;-76
2024/03/27 16:49:26;;;;;;;;;;;;;;;;;;5089706;28;20464;-76
2024/03/27 16:51:52;;;;;;;;;;;;;;;;;;5090522;28;19908;-75
2024/03/27 16:54:18;;;;;;;;;;;;;;;;;;5090854;28;19908;-74
2024/03/27 16:56:44;;;;;;;;;;;;;;;;;;5091274;28;19991;-75
2024/03/27 16:59:10;;;;;;;;;;;;;;;;;;5088982;28;19908;-75
2024/03/27 17:01:36;;;;;;;;;;;;;;;;;;5089332;28;19989;-75
2024/03/27 17:04:02;;;;;;;;;;;;;;;;;;5090708;28;19966;-75
2024/03/27 17:06:28;;;;;;;;;;;;;;;;;;5088883;28;19959;-77
2024/03/27 17:08:54;;;;;;;;;;;;;;;;;;5090797;28;20387;-76
2024/03/27 17:11:26;;;;;;;;;;;;;;;;;;5090475;28;20265;-76
2024/03/27 17:13:52;;;;;;;;;;;;;;;;;;5088841;28;20003;-76
2024/03/27 17:16:18;;;;;;;;;;;;;;;;;;5089153;28;19959;-76
2024/03/27 17:18:44;;;;;;;;;;;;;;;;;;5090144;28;19908;-76
2024/03/27 17:21:10;;;;;;;;;;;;;;;;;;5098992;28;19920;-76
2024/03/27 17:23:36;;;;;;;;;;;;;;;;;;5110958;28;19912;-78
2024/03/27 17:26:02;;;;;;;;;;;;;;;;;;5110222;28;19911;-77
2024/03/27 17:28:28;;;;;;;;;;;;;;;;;;5092379;28;19915;-76
2024/03/27 17:30:54;;;;;;;;;;;;;;;;;;5110358;28;19952;-75
2024/03/27 17:33:20;;;;;;;;;;;;;;;;;;5081621;28;19908;-76
2024/03/27 17:35:46;;;;;;;;;;;;;;;;;;5096849;28;19912;-74
2024/03/27 17:38:12;;;;;;;;;;;;;;;;;;5096648;28;19912;-75
2024/03/27 17:40:38;;;;;;;;;;;;;;;;;;5096201;28;20024;-75
2024/03/27 17:43:04;;;;;;;;;;;;;;;;;;5096521;28;19970;-75
2024/03/27 17:45:30;;;;;;;;;;;;;;;;;;5096576;28;20280;-75
2024/03/27 17:47:56;;;;;;;;;;;;;;;;;;5077994;28;20284;-74
2024/03/27 17:50:22;;;;;;;;;;;;;;;;;;5096459;28;20432;-74
2024/03/27 17:52:48;;;;;;;;;;;;;;;;;;5096303;28;20000;-74
2024/03/27 17:55:14;;;;;;;;;;;;;;;;;;5077787;28;19915;-74
2024/03/27 17:57:40;;;;;;;;;;;;;;;;;;5096411;28;19909;-74
2024/03/27 18:00:06;;;;;;;;;;;;;;;;;;5096177;28;20023;-74
2024/03/27 18:02:39;;;;;;;;;;;;;;;;;;5077473;28;19943;-74
2024/03/27 18:05:05;;;;;;;;;;;;;;;;;;5096235;28;19983;-74
2024/03/27 18:07:31;;;;;;;;;;;;;;;;;;5096015;28;19908;-74
2024/03/27 18:09:57;;;;;;;;;;;;;;;;;;5095961;28;19919;-75
2024/03/27 18:12:23;;;;;;;;;;;;;;;;;;5095896;28;20007;-75
2024/03/27 18:14:49;;;;;;;;;;;;;;;;;;5095663;28;19948;-75
2024/03/27 18:17:15;;;;;;;;;;;;;;;;;;5077841;28;20348;-73
2024/03/27 18:19:41;;;;;;;;;;;;;;;;;;5096027;28;19959;-75
2024/03/27 18:22:07;;;;;;;;;;;;;;;;;;5095420;28;19924;-75
2024/03/27 18:24:34;;;;;;;;;;;;;;;;;;5077752;28;19934;-75
2024/03/27 18:27:01;;;;;;;;;;;;;;;;;;5095825;28;19908;-75
2024/03/27 18:29:26;;;;;;;;;;;;;;;;;;5095441;28;20384;-75
2024/03/27 18:31:52;;;;;;;;;;;;;;;;;;5077567;28;20007;-74